Time;durP1;ratioP1;P1;durP2;ratioP2;P2;SDS_P1;SDS_P2;PMS_P1;PMS_P2;Temp;Humidity;BMP_temperature;BMP_pressure;BME280_temperature;BME280_humidity;BME280_pressure;Samples;Min_cycle;Max_cycle;Signal;HPM_P1;HPM_P2
2022/01/03 00:00:06;;;;;;;4.82;1.70;;;;;;;9.35;100.00;98501.19;4957724;28;20055;-91
2022/01/03 00:02:33;;;;;;;4.28;1.10;;;;;;;9.02;100.00;98485.09;4938847;29;20047;-91
2022/01/03 00:05:00;;;;;;;2.88;1.02;;;;;;;9.11;100.00;98478.41;4938814;29;20047;-91
2022/01/03 00:07:27;;;;;;;5.00;1.20;;;;;;;9.50;100.00;98510.59;4944563;28;20061;-92
2022/01/03 00:09:57;;;;;;;3.20;1.02;;;;;;;9.09;100.00;98485.53;4940828;28;20081;-92
2022/01/03 00:12:25;;;;;;;3.70;1.20;;;;;;;9.20;100.00;98475.19;4958171;28;20055;-91
2022/01/03 00:14:53;;;;;;;5.32;1.30;;;;;;;9.27;100.00;98486.88;4957730;28;20047;-91
2022/01/03 00:17:20;;;;;;;3.28;1.08;;;;;;;9.09;100.00;98470.69;4957577;28;20093;-92
2022/01/03 00:19:47;;;;;;;3.83;1.10;;;;;;;9.29;100.00;98497.22;4957323;28;20062;-91
2022/01/03 00:22:16;;;;;;;3.28;1.00;;;;;;;9.36;100.00;98489.81;4938295;29;20466;-91
2022/01/03 00:24:48;;;;;;;3.72;1.00;;;;;;;8.84;100.00;98461.06;4954816;28;20474;-92
2022/01/03 00:27:16;;;;;;;2.55;1.20;;;;;;;8.83;100.00;98503.75;4939106;29;20055;-92
2022/01/03 00:29:46;;;;;;;4.45;1.10;;;;;;;8.81;100.00;98476.09;4954438;28;20054;-92
2022/01/03 00:32:14;;;;;;;3.35;1.10;;;;;;;8.67;100.00;98475.22;4973387;28;20054;-91
2022/01/03 00:34:41;;;;;;;2.58;1.10;;;;;;;9.12;100.00;98486.16;4957403;28;20070;-92
2022/01/03 00:37:09;;;;;;;1.33;0.98;;;;;;;9.16;100.00;98499.84;4957243;28;20468;-91
2022/01/03 00:39:37;;;;;;;4.47;1.10;;;;;;;9.07;100.00;98490.84;4972498;28;20049;-92
2022/01/03 00:42:04;;;;;;;6.10;1.13;;;;;;;8.87;100.00;98486.97;4938128;29;20055;-91
2022/01/03 00:44:33;;;;;;;4.85;1.30;;;;;;;8.78;100.00;98489.34;4938150;29;20058;-91
2022/01/03 00:47:00;;;;;;;6.60;1.40;;;;;;;8.50;100.00;98472.91;4941193;28;20059;-92
2022/01/03 00:49:27;;;;;;;3.90;1.25;;;;;;;8.68;100.00;98491.72;4962228;28;20051;-92
2022/01/03 00:51:54;;;;;;;2.28;1.00;;;;;;;9.05;100.00;98479.69;4938312;29;20047;-90
2022/01/03 00:54:21;;;;;;;5.82;1.20;;;;;;;8.63;100.00;98488.59;4948509;28;20424;-92
2022/01/03 00:56:54;;;;;;;2.83;1.40;;;;;;;8.68;100.00;98503.00;4957505;28;20432;-92
2022/01/03 00:59:36;;;;;;;2.30;1.10;;;;;;;8.81;100.00;98486.53;4956377;28;20592;-92
2022/01/03 01:02:04;;;;;;;3.10;1.20;;;;;;;8.83;100.00;98498.53;4957527;28;20058;-91
2022/01/03 01:04:32;;;;;;;2.67;1.15;;;;;;;8.93;100.00;98493.53;4957417;28;20117;-92
2022/01/03 01:06:59;;;;;;;3.20;1.05;;;;;;;8.38;100.00;98444.97;4957289;28;20065;-91
2022/01/03 01:09:28;;;;;;;5.28;1.10;;;;;;;8.51;100.00;98466.72;4953169;28;20051;-91
2022/01/03 01:11:57;;;;;;;2.60;1.10;;;;;;;8.88;100.00;98486.00;4956710;28;20732;-91
2022/01/03 01:14:25;;;;;;;4.97;1.38;;;;;;;8.71;100.00;98486.28;4940746;29;20047;-91
2022/01/03 01:16:53;;;;;;;2.40;1.00;;;;;;;8.53;100.00;98475.28;4938688;28;20078;-91
2022/01/03 01:19:21;;;;;;;2.35;1.00;;;;;;;8.65;100.00;98484.94;4956420;28;20086;-90
2022/01/03 01:21:50;;;;;;;1.75;1.00;;;;;;;8.82;100.00;98489.03;4956747;28;20057;-92
2022/01/03 01:24:21;;;;;;;2.38;1.10;;;;;;;8.69;100.00;98483.81;4956837;28;20049;-91
2022/01/03 01:29:36;;;;;;;3.95;1.65;;;;;;;8.59;100.00;98489.69;4970767;28;20417;-91
2022/01/03 01:32:04;;;;;;;1.70;0.98;;;;;;;8.51;100.00;98464.13;4956879;28;20057;-91
2022/01/03 01:34:34;;;;;;;2.88;1.20;;;;;;;8.22;100.00;98476.44;4956647;28;20043;-91
2022/01/03 01:37:02;;;;;;;3.08;1.10;;;;;;;8.35;100.00;98474.69;4959955;28;20074;-91
2022/01/03 01:39:30;;;;;;;2.85;1.10;;;;;;;8.34;100.00;98475.63;4959063;28;20493;-91
2022/01/03 01:42:00;;;;;;;3.75;1.27;;;;;;;8.30;100.00;98474.97;4960543;28;20408;-91
2022/01/03 01:44:31;;;;;;;5.32;1.48;;;;;;;8.39;100.00;98467.50;4960489;28;20057;-90
2022/01/03 01:47:04;;;;;;;5.43;1.20;;;;;;;8.51;100.00;98459.75;4960648;28;20114;-90
2022/01/03 01:49:38;;;;;;;2.37;1.13;;;;;;;8.29;100.00;98454.22;4959507;28;20057;-91
2022/01/03 01:52:13;;;;;;;3.53;1.10;;;;;;;8.39;100.00;98451.84;4977862;28;20284;-91
2022/01/03 01:54:50;;;;;;;4.70;1.20;;;;;;;8.43;100.00;98469.00;4960390;28;20047;-90
2022/01/03 01:57:19;;;;;;;4.82;1.20;;;;;;;8.38;100.00;98484.09;4977775;28;20062;-91
2022/01/03 02:00:10;;;;;;;3.45;1.10;;;;;;;8.40;100.00;98466.56;4957413;28;20497;-91
2022/01/03 02:02:49;;;;;;;3.30;1.10;;;;;;;8.59;100.00;98464.47;4960796;28;20610;-91
2022/01/03 02:05:22;;;;;;;4.05;1.17;;;;;;;8.51;100.00;98464.13;4960543;28;20404;-91
2022/01/03 02:08:01;;;;;;;6.03;1.40;;;;;;;8.42;100.00;98486.41;4959864;28;20062;-91
2022/01/03 02:10:36;;;;;;;3.95;1.30;;;;;;;8.20;100.00;98444.38;4960293;28;20413;-91
2022/01/03 02:13:03;;;;;;;3.40;1.40;;;;;;;8.41;100.00;98458.66;4960140;28;20051;-91
2022/01/03 02:15:31;;;;;;;7.32;2.25;;;;;;;8.45;100.00;98467.16;4977589;28;20477;-91
2022/01/03 02:17:59;;;;;;;2.05;1.10;;;;;;;8.44;100.00;98458.47;4974040;28;20059;-91
2022/01/03 02:20:27;;;;;;;4.00;1.25;;;;;;;8.30;100.00;98435.03;4960194;28;20050;-91
2022/01/03 02:22:55;;;;;;;4.03;1.63;;;;;;;8.50;100.00;98449.44;4960541;28;20061;-92
2022/01/03 02:25:23;;;;;;;3.17;1.40;;;;;;;8.30;100.00;98437.63;4977202;28;20046;-91
2022/01/03 02:27:52;;;;;;;3.83;1.20;;;;;;;8.48;100.00;98453.88;4976447;28;20138;-91
2022/01/03 02:30:23;;;;;;;2.35;1.13;;;;;;;8.25;100.00;98447.53;4944720;28;20047;-92
2022/01/03 02:32:49;;;;;;;4.07;1.63;;;;;;;8.15;100.00;98455.13;4961796;28;20121;-91
2022/01/03 02:35:17;;;;;;;4.05;1.00;;;;;;;8.49;100.00;98466.84;4979067;28;20054;-92
2022/01/03 02:37:46;;;;;;;4.32;1.13;;;;;;;8.54;100.00;98474.38;4965362;28;20051;-91
2022/01/03 02:40:14;;;;;;;1.73;1.08;;;;;;;8.38;100.00;98453.63;4957685;28;20408;-91
2022/01/03 02:42:41;;;;;;;3.72;1.25;;;;;;;8.34;100.00;98441.75;4975889;28;20062;-92
2022/01/03 02:45:10;;;;;;;2.38;1.15;;;;;;;8.32;100.00;98474.88;4959972;28;20046;-92
2022/01/03 02:47:38;;;;;;;2.10;1.08;;;;;;;8.39;100.00;98462.28;4958810;28;20477;-91
2022/01/03 02:50:08;;;;;;;4.15;1.27;;;;;;;8.38;100.00;98458.03;4941866;29;20051;-91
2022/01/03 02:52:35;;;;;;;3.13;1.10;;;;;;;8.56;100.00;98475.09;4956458;29;20047;-91
2022/01/03 02:55:05;;;;;;;2.63;1.20;;;;;;;8.47;100.00;98463.50;4973777;28;20088;-91
2022/01/03 02:57:48;;;;;;;3.53;1.20;;;;;;;8.20;100.00;98462.63;4975683;28;20054;-92
2022/01/03 03:00:24;;;;;;;2.65;1.05;;;;;;;8.45;100.00;98472.38;4940060;29;20051;-91
2022/01/03 03:02:51;;;;;;;3.78;1.38;;;;;;;8.29;100.00;98455.06;4941659;28;20055;-91
2022/01/03 03:05:18;;;;;;;3.13;1.13;;;;;;;8.27;100.00;98441.28;4958859;28;20051;-91
2022/01/03 03:07:46;;;;;;;5.25;1.23;;;;;;;8.03;100.00;98402.00;4958696;28;20077;-91
2022/01/03 03:10:17;;;;;;;5.68;1.13;;;;;;;7.90;100.00;98411.56;4951599;28;20058;-91
2022/01/03 03:12:44;;;;;;;3.03;1.20;;;;;;;8.24;100.00;98423.25;4975568;28;20047;-91
2022/01/03 03:15:13;;;;;;;3.85;1.10;;;;;;;8.13;100.00;98418.72;4958681;28;20043;-91
2022/01/03 03:17:41;;;;;;;2.95;1.40;;;;;;;7.89;100.00;98428.09;4958849;28;20055;-91
2022/01/03 03:20:22;;;;;;;9.13;1.95;;;;;;;8.05;100.00;98401.91;4956826;28;20062;-91
2022/01/03 03:22:50;;;;;;;5.00;1.30;;;;;;;8.02;100.00;98428.16;4939742;29;20654;-91
2022/01/03 03:25:20;;;;;;;1.67;0.90;;;;;;;7.95;100.00;98401.66;4939117;29;20087;-91
2022/01/03 03:27:53;;;;;;;2.33;1.10;;;;;;;7.99;100.00;98453.47;4956469;28;20553;-91
2022/01/03 03:30:25;;;;;;;2.90;1.13;;;;;;;7.91;100.00;98440.09;4975062;28;20058;-92
2022/01/03 03:32:54;;;;;;;2.03;1.13;;;;;;;8.26;100.00;98457.03;4958939;28;20054;-91
2022/01/03 03:35:21;;;;;;;2.63;1.10;;;;;;;8.11;100.00;98457.09;4958785;28;20054;-91
2022/01/03 03:37:48;;;;;;;3.15;1.25;;;;;;;7.92;100.00;98426.13;4958004;28;20073;-91
2022/01/03 03:40:15;;;;;;;4.20;1.23;;;;;;;7.83;100.00;98397.25;4957449;28;20378;-91
2022/01/03 03:42:43;;;;;;;4.90;1.58;;;;;;;7.95;100.00;98446.81;4975482;28;20057;-91
2022/01/03 03:45:11;;;;;;;4.95;1.23;;;;;;;7.90;100.00;98417.59;4958111;28;20055;-90
2022/01/03 03:47:38;;;;;;;5.35;1.27;;;;;;;7.83;100.00;98400.69;4958961;28;20082;-91
2022/01/03 03:50:06;;;;;;;4.25;1.30;;;;;;;8.17;100.00;98429.78;4955811;28;20051;-91
2022/01/03 03:52:33;;;;;;;5.65;1.10;;;;;;;8.22;100.00;98434.72;4958635;28;20051;-91
2022/01/03 03:55:00;;;;;;;4.05;1.10;;;;;;;8.08;100.00;98428.59;4958350;28;20062;-90
2022/01/03 03:57:27;;;;;;;3.72;1.13;;;;;;;8.15;100.00;98429.06;4958638;28;20054;-91
2022/01/03 03:59:54;;;;;;;4.40;1.23;;;;;;;7.99;100.00;98427.41;4971675;28;20052;-91
2022/01/03 04:02:20;;;;;;;3.92;1.27;;;;;;;7.96;100.00;98427.59;4958280;28;20054;-91
2022/01/03 04:04:48;;;;;;;3.20;1.10;;;;;;;8.02;100.00;98430.75;4958817;28;20374;-91
2022/01/03 04:07:15;;;;;;;4.32;1.17;;;;;;;8.15;100.00;98408.19;4959137;28;20051;-91
2022/01/03 04:09:42;;;;;;;5.32;1.35;;;;;;;8.14;100.00;98416.94;4944205;28;20069;-91
2022/01/03 04:12:09;;;;;;;10.57;2.33;;;;;;;7.84;100.00;98415.34;4939283;29;20061;-91
2022/01/03 04:14:35;;;;;;;7.20;1.20;;;;;;;8.17;100.00;98412.38;4954933;29;20060;-91
2022/01/03 04:17:02;;;;;;;7.22;1.45;;;;;;;8.18;100.00;98416.66;4957930;28;20047;-91
2022/01/03 04:19:29;;;;;;;4.05;1.35;;;;;;;7.86;100.00;98379.66;4955247;28;20061;-91
2022/01/03 04:21:56;;;;;;;7.22;1.30;;;;;;;7.95;100.00;98379.06;4958855;28;20047;-91
2022/01/03 04:24:23;;;;;;;5.88;1.50;;;;;;;8.10;100.00;98402.44;4957923;28;20063;-91
2022/01/03 04:26:49;;;;;;;2.70;1.10;;;;;;;8.38;100.00;98403.25;4957995;28;20385;-91
2022/01/03 04:29:16;;;;;;;4.72;1.40;;;;;;;8.33;100.00;98403.56;4955636;28;20047;-91
2022/01/03 04:31:43;;;;;;;8.63;1.63;;;;;;;8.35;100.00;98418.16;4957186;28;20047;-90
2022/01/03 04:34:10;;;;;;;6.93;1.63;;;;;;;8.27;100.00;98419.59;4957806;28;20051;-91
2022/01/03 04:36:37;;;;;;;3.83;1.10;;;;;;;8.08;100.00;98389.50;4991489;28;20050;-91
2022/01/03 04:39:05;;;;;;;5.18;1.40;;;;;;;8.11;100.00;98415.38;4957538;28;20054;-89
2022/01/03 04:41:33;;;;;;;7.47;1.65;;;;;;;8.11;100.00;98419.75;4957779;28;20051;-91
2022/01/03 04:44:01;;;;;;;5.88;1.40;;;;;;;8.13;100.00;98418.72;4957808;28;20047;-91
2022/01/03 04:46:27;;;;;;;5.55;1.30;;;;;;;8.00;100.00;98402.19;4957714;28;20047;-92
2022/01/03 04:48:54;;;;;;;4.25;1.25;;;;;;;8.11;100.00;98411.91;4957163;28;20139;-91
2022/01/03 04:51:21;;;;;;;7.97;1.30;;;;;;;8.02;100.00;98395.13;4958078;28;20085;-91
2022/01/03 04:53:48;;;;;;;4.40;1.20;;;;;;;8.02;100.00;98405.56;4957834;28;20480;-91
2022/01/03 04:56:15;;;;;;;7.68;2.22;;;;;;;7.98;100.00;98406.66;4957747;28;20051;-91
2022/01/03 04:58:42;;;;;;;5.93;1.42;;;;;;;8.08;100.00;98406.94;4967183;28;20061;-91
2022/01/03 05:01:09;;;;;;;5.38;1.50;;;;;;;7.98;100.00;98412.75;4958028;28;20059;-91
2022/01/03 05:03:36;;;;;;;4.43;1.40;;;;;;;7.94;100.00;98408.63;4974259;28;20138;-91
2022/01/03 05:06:03;;;;;;;7.05;1.50;;;;;;;7.90;100.00;98412.38;4973297;28;20042;-91
2022/01/03 05:08:32;;;;;;;6.07;2.03;;;;;;;7.81;100.00;98407.75;4971687;28;20515;-91
2022/01/03 05:11:00;;;;;;;6.07;1.73;;;;;;;8.02;100.00;98415.13;4957060;28;20396;-91
2022/01/03 05:13:31;;;;;;;4.55;1.65;;;;;;;7.97;100.00;98408.44;4957248;28;20390;-91
2022/01/03 05:16:00;;;;;;;5.97;1.33;;;;;;;8.01;100.00;98418.69;4955542;28;20139;-91
2022/01/03 05:18:27;;;;;;;9.35;1.80;;;;;;;7.89;100.00;98421.13;4954784;28;20552;-93
2022/01/03 05:20:55;;;;;;;4.45;1.42;;;;;;;8.08;100.00;98433.81;4957214;28;20133;-91
2022/01/03 05:23:22;;;;;;;4.20;1.83;;;;;;;8.07;100.00;98423.50;4974312;28;20081;-91
2022/01/03 05:25:49;;;;;;;7.32;1.63;;;;;;;7.80;100.00;98421.72;4956709;28;20051;-91
2022/01/03 05:28:16;;;;;;;6.30;1.38;;;;;;;7.96;100.00;98413.75;4953640;28;20061;-91
2022/01/03 05:30:43;;;;;;;4.63;1.33;;;;;;;7.93;100.00;98391.34;4962298;28;20046;-91
2022/01/03 05:33:10;;;;;;;6.55;1.40;;;;;;;8.07;100.00;98424.31;4956920;28;20409;-91
2022/01/03 05:35:37;;;;;;;9.43;1.48;;;;;;;8.19;100.00;98433.13;4957021;28;20135;-90
2022/01/03 05:38:04;;;;;;;4.68;1.20;;;;;;;8.14;100.00;98417.81;4954791;28;20057;-91
2022/01/03 05:40:31;;;;;;;4.95;1.38;;;;;;;8.14;100.00;98416.94;4951811;28;20057;-90
2022/01/03 05:42:58;;;;;;;5.93;1.20;;;;;;;8.27;100.00;98435.22;4957095;28;20481;-91
2022/01/03 05:45:26;;;;;;;4.93;1.23;;;;;;;8.09;100.00;98430.28;4956942;28;20047;-91
2022/01/03 05:47:53;;;;;;;5.45;1.20;;;;;;;8.31;100.00;98431.50;4954631;28;20050;-91
2022/01/03 05:50:20;;;;;;;4.95;1.45;;;;;;;8.62;100.00;98443.38;4954008;28;20051;-91
2022/01/03 05:52:47;;;;;;;4.60;1.55;;;;;;;8.34;100.00;98437.34;4938005;29;20058;-91
2022/01/03 05:55:14;;;;;;;4.90;1.60;;;;;;;8.45;100.00;98441.06;4937231;29;20133;-90
2022/01/03 05:57:41;;;;;;;4.20;1.23;;;;;;;8.61;100.00;98444.34;4954206;28;20151;-91
2022/01/03 06:00:11;;;;;;;6.47;1.52;;;;;;;8.88;100.00;98451.25;4954155;28;20054;-91
2022/01/03 06:02:41;;;;;;;3.67;1.33;;;;;;;9.01;100.00;98449.50;4956147;28;20055;-91
2022/01/03 06:05:18;;;;;;;3.58;1.20;;;;;;;8.78;100.00;98465.84;4955911;28;20054;-91
2022/01/03 06:07:45;;;;;;;4.13;1.20;;;;;;;8.74;100.00;98466.03;4955540;28;20055;-90
2022/01/03 06:10:16;;;;;;;2.67;1.13;;;;;;;8.97;100.00;98492.41;4950395;28;20042;-91
2022/01/03 06:12:45;;;;;;;7.25;2.03;;;;;;;8.76;100.00;98468.56;4973073;28;20056;-90
2022/01/03 06:15:14;;;;;;;3.35;1.10;;;;;;;8.83;100.00;98474.22;4971207;28;20046;-90
2022/01/03 06:17:42;;;;;;;5.55;1.30;;;;;;;8.96;100.00;98497.72;4954954;28;20189;-90
2022/01/03 06:20:10;;;;;;;2.58;1.10;;;;;;;8.85;100.00;98495.81;4937579;29;20417;-90
2022/01/03 06:22:40;;;;;;;4.22;2.47;;;;;;;8.84;100.00;98484.56;4954728;28;20138;-90
2022/01/03 06:25:08;;;;;;;5.00;1.30;;;;;;;8.95;100.00;98503.88;4972828;28;20047;-90
2022/01/03 06:27:36;;;;;;;3.63;1.20;;;;;;;8.93;100.00;98512.63;4959303;28;20070;-89
2022/01/03 06:30:05;;;;;;;5.90;1.63;;;;;;;8.76;100.00;98493.81;4939357;29;20059;-89
2022/01/03 06:32:32;;;;;;;4.10;1.20;;;;;;;8.78;100.00;98500.59;4939877;29;20405;-89
2022/01/03 06:34:59;;;;;;;4.97;1.83;;;;;;;8.84;100.00;98502.00;4940100;29;20078;-90
2022/01/03 06:37:26;;;;;;;3.67;1.05;;;;;;;8.92;100.00;98511.00;4957003;29;20063;-90
2022/01/03 06:39:53;;;;;;;4.60;1.17;;;;;;;8.35;100.00;98504.19;4955791;28;20958;-90
2022/01/03 06:42:20;;;;;;;4.63;1.20;;;;;;;8.68;100.00;98515.22;4959038;28;20050;-89
2022/01/03 06:44:48;;;;;;;4.60;1.10;;;;;;;8.80;100.00;98524.84;4959286;28;20746;-90
2022/01/03 06:47:17;;;;;;;4.07;1.10;;;;;;;8.74;100.00;98526.06;4964468;28;20668;-91
2022/01/03 06:49:44;;;;;;;9.50;1.83;;;;;;;8.88;100.00;98529.56;4947549;28;20405;-90
2022/01/03 06:52:11;;;;;;;8.60;2.10;;;;;;;8.78;100.00;98537.13;4940008;29;20055;-90
2022/01/03 06:54:38;;;;;;;5.95;1.60;;;;;;;8.68;100.00;98534.31;4955107;28;20055;-90
2022/01/03 06:57:05;;;;;;;5.28;1.20;;;;;;;8.79;100.00;98540.59;4974996;28;20051;-90
2022/01/03 06:59:32;;;;;;;4.60;1.27;;;;;;;8.84;100.00;98533.31;4945815;28;20501;-90
2022/01/03 07:01:59;;;;;;;5.70;1.35;;;;;;;8.90;100.00;98551.16;4939844;29;20051;-90
2022/01/03 07:04:26;;;;;;;4.57;1.13;;;;;;;8.86;100.00;98547.91;4946952;28;20390;-90
2022/01/03 07:06:53;;;;;;;3.40;1.00;;;;;;;8.85;100.00;98561.06;4975799;28;20089;-90
2022/01/03 07:09:20;;;;;;;5.13;1.42;;;;;;;8.72;100.00;98566.25;4946935;28;20057;-89
2022/01/03 07:11:47;;;;;;;5.97;1.58;;;;;;;8.79;100.00;98557.06;4941451;29;20055;-90
2022/01/03 07:19:40;;;;;;;3.15;1.23;;;;;;;8.67;100.00;98583.97;4975171;28;20050;-89
2022/01/03 07:22:10;;;;;;;2.67;1.00;;;;;;;8.37;100.00;98584.94;4958358;28;20055;-90
2022/01/03 07:24:39;;;;;;;2.55;1.25;;;;;;;8.36;100.00;98580.66;4975119;28;20042;-90
2022/01/03 07:27:10;;;;;;;5.30;1.60;;;;;;;8.40;100.00;98581.31;4957608;28;20051;-90
2022/01/03 07:29:37;;;;;;;16.63;2.28;;;;;;;8.59;100.00;98599.25;4941721;29;20074;-89
2022/01/03 07:32:04;;;;;;;1.58;1.00;;;;;;;8.44;100.00;98598.47;4953938;29;20478;-87
2022/01/03 07:34:31;;;;;;;3.05;1.10;;;;;;;8.55;100.00;98594.25;4954145;28;20078;-90
2022/01/03 07:36:58;;;;;;;2.45;0.90;;;;;;;8.31;100.00;98607.03;4954699;29;20401;-90
2022/01/03 07:39:25;;;;;;;2.15;1.00;;;;;;;8.37;100.00;98621.44;4957109;28;20682;-90
2022/01/03 07:41:52;;;;;;;1.55;1.08;;;;;;;8.18;100.00;98622.59;4957382;28;20485;-89
2022/01/03 07:44:19;;;;;;;4.03;1.02;;;;;;;8.17;100.00;98628.72;4956734;28;20051;-90
2022/01/03 07:46:46;;;;;;;0.90;0.80;;;;;;;8.27;100.00;98629.00;4938191;28;20123;-89
2022/01/03 07:49:12;;;;;;;1.58;0.90;;;;;;;7.93;100.00;98636.28;4974289;28;20050;-89
2022/01/03 07:51:39;;;;;;;2.00;1.20;;;;;;;8.14;100.00;98649.78;4957535;28;20093;-90
2022/01/03 07:54:06;;;;;;;3.10;0.82;;;;;;;7.75;100.00;98658.22;4974301;28;20062;-90
2022/01/03 07:56:33;;;;;;;1.27;0.80;;;;;;;7.65;100.00;98654.47;4958144;28;20639;-90
2022/01/03 07:59:00;;;;;;;1.20;0.82;;;;;;;7.69;100.00;98685.47;4956839;28;20134;-90
2022/01/03 08:01:27;;;;;;;1.77;1.00;;;;;;;7.83;100.00;98676.84;4973682;28;20085;-91
2022/01/03 08:03:54;;;;;;;1.65;1.10;;;;;;;7.80;100.00;98682.22;4974477;28;20097;-90
2022/01/03 08:06:41;;;;;;;1.05;0.90;;;;;;;6.97;100.00;98708.59;4974306;28;20046;-90
2022/01/03 08:09:07;;;;;;;1.02;0.80;;;;;;;7.38;100.00;98723.69;4949763;28;20481;-89
2022/01/03 08:11:34;;;;;;;1.27;0.80;;;;;;;7.50;100.00;98713.50;4955620;28;20051;-89
2022/01/03 08:14:01;;;;;;;1.42;0.95;;;;;;;7.51;100.00;98730.81;4956627;28;20146;-90
2022/01/03 08:16:28;;;;;;;1.20;0.90;;;;;;;7.02;100.00;98739.59;4956693;28;20046;-90
2022/01/03 08:18:55;;;;;;;1.55;1.00;;;;;;;6.94;100.00;98734.81;4953328;28;20058;-90
2022/01/03 08:21:22;;;;;;;0.95;0.90;;;;;;;6.90;100.00;98742.84;4956678;28;20050;-89
2022/01/03 08:23:51;;;;;;;2.78;1.10;;;;;;;7.02;100.00;98752.59;4963909;28;20390;-89
2022/01/03 08:26:18;;;;;;;1.35;0.95;;;;;;;6.65;100.00;98760.59;4962221;28;20045;-90
2022/01/03 08:28:45;;;;;;;5.47;1.10;;;;;;;6.44;100.00;98780.78;4967990;28;20059;-89
2022/01/03 08:31:12;;;;;;;3.15;1.20;;;;;;;6.35;100.00;98778.66;4956286;28;20054;-89
2022/01/03 08:33:39;;;;;;;5.50;1.30;;;;;;;6.10;100.00;98810.25;4956630;28;20065;-89
2022/01/03 08:36:06;;;;;;;3.55;1.10;;;;;;;6.18;100.00;98791.66;4973660;28;20039;-90
2022/01/03 08:38:33;;;;;;;4.05;1.35;;;;;;;5.75;100.00;98812.78;4962195;28;20100;-90
2022/01/03 08:41:00;;;;;;;7.05;1.52;;;;;;;5.92;100.00;98830.16;4953857;28;20058;-88
2022/01/03 08:43:30;;;;;;;5.10;1.30;;;;;;;6.18;100.00;98839.31;4955595;28;20137;-88
2022/01/03 08:45:57;;;;;;;5.72;1.75;;;;;;;5.81;100.00;98829.84;4956837;28;20062;-89
2022/01/03 08:48:24;;;;;;;6.22;1.30;;;;;;;6.19;100.00;98847.94;4955087;28;20078;-88
2022/01/03 08:50:51;;;;;;;3.70;1.30;;;;;;;5.72;100.00;98851.91;4972137;28;20046;-89
2022/01/03 08:53:18;;;;;;;8.48;2.30;;;;;;;5.73;100.00;98860.53;4975829;28;20054;-89
2022/01/03 08:55:44;;;;;;;4.57;1.95;;;;;;;5.88;100.00;98878.00;4969263;28;20480;-89
2022/01/03 08:58:12;;;;;;;3.58;1.33;;;;;;;5.46;100.00;98877.31;4967249;28;20086;-89
2022/01/03 09:00:39;;;;;;;5.15;1.67;;;;;;;5.86;100.00;98901.44;4946915;28;20534;-89
2022/01/03 09:03:06;;;;;;;5.10;1.40;;;;;;;5.63;100.00;98907.72;4952873;28;20053;-90
2022/01/03 09:05:33;;;;;;;6.57;1.58;;;;;;;5.68;100.00;98903.16;4955362;28;20050;-89
2022/01/03 09:07:59;;;;;;;5.30;1.55;;;;;;;5.62;100.00;98906.00;4955418;28;20054;-88
2022/01/03 09:10:26;;;;;;;7.93;1.70;;;;;;;5.39;100.00;98925.25;4954626;28;20061;-89
2022/01/03 09:12:53;;;;;;;4.20;1.48;;;;;;;4.65;100.00;98899.94;4951571;28;20539;-89
2022/01/03 09:15:20;;;;;;;4.25;1.60;;;;;;;5.37;100.00;98926.22;4954455;28;20374;-90
2022/01/03 09:17:48;;;;;;;5.03;1.38;;;;;;;5.47;100.00;98943.91;4960257;28;20097;-88
2022/01/03 09:20:15;;;;;;;6.30;1.80;;;;;;;4.91;100.00;98957.63;4953290;28;20051;-89
2022/01/03 09:22:47;;;;;;;3.47;1.38;;;;;;;5.07;100.00;98952.63;4952699;28;20055;-90
2022/01/03 09:30:44;;;;;;;6.03;1.80;;;;;;;5.07;100.00;98958.66;4956376;28;20051;-90
2022/01/03 09:33:12;;;;;;;5.82;1.65;;;;;;;4.89;100.00;98959.44;4956568;28;20042;-90
2022/01/03 09:35:41;;;;;;;11.18;1.98;;;;;;;5.37;100.00;98991.13;4972367;28;20051;-90
2022/01/03 09:38:08;;;;;;;8.93;1.90;;;;;;;5.07;100.00;98981.16;4954498;28;20059;-88
2022/01/03 09:40:36;;;;;;;7.82;1.80;;;;;;;5.08;100.00;98998.38;4954916;28;20062;-90
2022/01/03 09:43:03;;;;;;;7.35;1.75;;;;;;;5.01;100.00;98992.66;4953091;28;20046;-89
2022/01/03 09:45:33;;;;;;;9.32;1.90;;;;;;;5.13;100.00;98976.56;4955067;28;20055;-90
2022/01/03 09:48:04;;;;;;;8.85;1.70;;;;;;;5.21;100.00;99015.13;4954274;28;20071;-90
2022/01/03 09:50:33;;;;;;;8.93;2.03;;;;;;;5.29;100.00;99014.78;4952391;28;20058;-90
2022/01/03 09:53:02;;;;;;;7.28;1.52;;;;;;;5.17;100.00;99016.19;4973295;28;20050;-89
2022/01/03 09:55:31;;;;;;;7.65;1.80;;;;;;;5.11;100.00;99022.44;4972132;28;20047;-90
2022/01/03 09:57:58;;;;;;;11.82;2.85;;;;;;;4.91;100.00;99007.75;4949964;28;20580;-90
2022/01/03 10:00:26;;;;;;;5.78;1.50;;;;;;;5.04;100.00;99043.53;4966425;28;20057;-90
2022/01/03 10:02:55;;;;;;;7.63;1.92;;;;;;;5.06;100.00;99058.13;4976934;28;20143;-90
2022/01/03 10:05:22;;;;;;;8.82;1.80;;;;;;;4.95;100.00;99063.75;4957402;28;20106;-90
2022/01/03 10:07:49;;;;;;;10.75;2.70;;;;;;;4.89;100.00;99045.88;4954970;28;20051;-91
2022/01/03 10:10:16;;;;;;;10.43;1.88;;;;;;;4.73;100.00;99075.94;4954764;28;20058;-90
2022/01/03 10:12:43;;;;;;;9.25;1.92;;;;;;;4.44;100.00;99061.53;4959727;28;20405;-91
2022/01/03 10:15:11;;;;;;;6.63;1.80;;;;;;;5.08;100.00;99077.09;4960035;28;20054;-91
2022/01/03 10:17:41;;;;;;;4.88;1.60;;;;;;;4.68;100.00;99072.69;4960022;28;20046;-91
2022/01/03 10:20:10;;;;;;;9.85;2.13;;;;;;;4.67;100.00;99084.78;4975627;28;20047;-91
2022/01/03 10:22:38;;;;;;;13.65;3.58;;;;;;;4.82;100.00;99082.50;4959905;28;20051;-90
2022/01/03 10:25:19;;;;;;;9.27;1.70;;;;;;;4.96;100.00;99095.75;4960274;28;20489;-91
2022/01/03 10:27:55;;;;;;;10.20;3.10;;;;;;;5.03;100.00;99106.69;4959191;28;20058;-90
2022/01/03 10:30:31;;;;;;;9.77;1.70;;;;;;;4.79;100.00;99111.13;4959134;28;20089;-91
2022/01/03 10:32:58;;;;;;;11.98;2.40;;;;;;;4.67;100.00;99097.72;4959772;28;20105;-91
2022/01/03 10:35:25;;;;;;;13.13;2.10;;;;;;;4.81;100.00;99114.50;4976853;28;20139;-91
2022/01/03 10:37:52;;;;;;;14.50;2.28;;;;;;;4.96;100.00;99116.50;4976420;28;20151;-91
2022/01/03 10:40:25;;;;;;;15.35;3.55;;;;;;;4.86;100.00;99128.97;4959048;28;20050;-90
2022/01/03 10:42:52;;;;;;;9.02;3.00;;;;;;;4.88;100.00;99116.78;4975874;28;20050;-91
2022/01/03 10:45:30;;;;;;;12.60;2.35;;;;;;;5.05;100.00;99134.28;4976991;28;20062;-91
2022/01/03 10:47:58;;;;;;;8.10;1.90;;;;;;;5.05;100.00;99118.72;4956701;28;20179;-91
2022/01/03 10:50:26;;;;;;;12.82;1.90;;;;;;;5.12;100.00;99108.94;4951077;28;20055;-91
2022/01/03 10:52:53;;;;;;;7.13;1.98;;;;;;;5.17;100.00;99143.31;4939960;29;20055;-90
2022/01/03 10:55:30;;;;;;;8.68;2.03;;;;;;;4.87;100.00;99093.50;4956004;29;20051;-91
2022/01/03 10:58:03;;;;;;;13.68;2.67;;;;;;;5.05;100.00;99138.63;4956314;28;20039;-90
2022/01/03 11:00:36;;;;;;;15.27;2.80;;;;;;;4.98;100.00;99163.13;4940176;29;20059;-90
2022/01/03 11:03:40;;;;;;;8.63;1.95;;;;;;;5.40;100.00;99164.88;4951625;28;20284;-90
2022/01/03 11:06:12;;;;;;;8.48;2.50;;;;;;;5.38;100.00;99136.38;4956264;29;20142;-90
2022/01/03 11:11:45;;;;;;;7.68;3.28;;;;;;;5.05;100.00;99170.59;4956354;29;20054;-90
2022/01/03 11:14:36;;;;;;;15.05;2.55;;;;;;;5.01;100.00;99157.78;4951351;28;20134;-91
2022/01/03 11:17:29;;;;;;;14.40;2.35;;;;;;;5.30;100.00;99172.19;4958929;28;20409;-90
2022/01/03 11:20:00;;;;;;;11.65;2.67;;;;;;;5.32;100.00;99165.19;4958241;28;20058;-90
2022/01/03 11:22:46;;;;;;;10.30;2.22;;;;;;;5.37;100.00;99190.97;4958927;28;20061;-90
2022/01/03 11:25:13;;;;;;;11.95;2.42;;;;;;;5.40;100.00;99183.03;4958405;28;20057;-90
2022/01/03 11:27:40;;;;;;;18.52;4.97;;;;;;;5.19;100.00;99180.41;4957977;28;20047;-90
2022/01/03 11:30:11;;;;;;;12.57;2.15;;;;;;;5.02;100.00;99177.66;4952270;29;20053;-89
2022/01/03 11:32:43;;;;;;;14.30;4.18;;;;;;;5.25;100.00;99198.31;4938883;29;20051;-89
2022/01/03 11:35:11;;;;;;;8.40;2.20;;;;;;;4.84;100.00;99193.03;4956020;29;20055;-89
2022/01/03 11:37:40;;;;;;;8.88;1.98;;;;;;;4.74;100.00;99179.56;4939504;29;20061;-90
2022/01/03 11:40:09;;;;;;;8.27;2.13;;;;;;;4.81;100.00;99189.72;4955784;28;20051;-92
2022/01/03 11:42:36;;;;;;;17.67;2.45;;;;;;;4.63;100.00;99183.50;4957712;28;20059;-89
2022/01/03 11:45:03;;;;;;;14.15;2.40;;;;;;;4.80;100.00;99181.09;4974945;28;20507;-88
2022/01/03 11:47:31;;;;;;;14.27;2.78;;;;;;;4.78;100.00;99189.81;4971312;28;20050;-90
2022/01/03 11:49:58;;;;;;;10.05;2.67;;;;;;;4.84;100.00;99203.41;4954136;28;20400;-90
2022/01/03 11:52:26;;;;;;;15.13;2.55;;;;;;;4.69;100.00;99196.19;4975071;28;20138;-91
2022/01/03 11:54:55;;;;;;;11.23;2.30;;;;;;;4.99;100.00;99203.72;4958573;28;20055;-92